Time;durP1;ratioP1;P1;durP2;ratioP2;P2;SDS_P1;SDS_P2;PMS_P1;PMS_P2;Temp;Humidity;BMP_temperature;BMP_pressure;BME280_temperature;BME280_humidity;BME280_pressure;Samples;Min_cycle;Max_cycle;Signal;HPM_P1;HPM_P2
2022/08/17 00:00:29;;;;;;;7.53;3.78;;;;;;;;;;4921071;29;20098;-77
2022/08/17 00:03:08;;;;;;;6.40;3.67;;;;;;;;;;4921419;29;20028;-75
2022/08/17 00:05:43;;;;;;;5.47;3.38;;;;;;;;;;4921585;29;20038;-75
2022/08/17 00:08:09;;;;;;;10.73;3.75;;;;;;;;;;4920657;29;20393;-75
2022/08/17 00:10:36;;;;;;;5.35;3.55;;;;;;;;;;4920783;29;20114;-76
2022/08/17 00:13:06;;;;;;;6.68;4.03;;;;;;;;;;4920546;29;20473;-76
2022/08/17 00:15:33;;;;;;;6.78;3.38;;;;;;;;;;4920484;29;20512;-76
2022/08/17 00:17:59;;;;;;;9.85;3.95;;;;;;;;;;4937646;29;20034;-75
2022/08/17 00:20:25;;;;;;;8.32;3.90;;;;;;;;;;4938762;29;20024;-76
2022/08/17 00:23:01;;;;;;;5.15;3.40;;;;;;;;;;4937260;29;20028;-76
2022/08/17 00:25:27;;;;;;;9.13;4.18;;;;;;;;;;4920344;29;20038;-76
2022/08/17 00:27:53;;;;;;;6.57;3.60;;;;;;;;;;4920293;29;20540;-75
2022/08/17 00:30:19;;;;;;;7.53;4.13;;;;;;;;;;4921480;29;20060;-76
2022/08/17 00:32:46;;;;;;;7.05;3.80;;;;;;;;;;4920902;29;20485;-76
2022/08/17 00:35:16;;;;;;;5.38;3.85;;;;;;;;;;4921098;29;20039;-76
2022/08/17 00:37:42;;;;;;;5.03;3.50;;;;;;;;;;4936819;29;20024;-76
2022/08/17 00:40:11;;;;;;;8.68;4.05;;;;;;;;;;4920292;29;20031;-75
2022/08/17 00:42:37;;;;;;;8.15;3.90;;;;;;;;;;4937684;29;20028;-76
2022/08/17 00:45:04;;;;;;;6.60;4.05;;;;;;;;;;4936995;29;20024;-75
2022/08/17 00:47:30;;;;;;;5.13;3.42;;;;;;;;;;4920071;29;20059;-75
2022/08/17 00:49:56;;;;;;;8.23;3.95;;;;;;;;;;4920173;29;20074;-76
2022/08/17 00:52:26;;;;;;;5.72;3.88;;;;;;;;;;4920009;29;20450;-77
2022/08/17 00:54:53;;;;;;;7.13;4.05;;;;;;;;;;4936912;29;20174;-76
2022/08/17 00:57:24;;;;;;;7.88;3.85;;;;;;;;;;4919600;29;20484;-76
2022/08/17 00:59:55;;;;;;;6.43;3.80;;;;;;;;;;4919707;29;20039;-76
2022/08/17 01:02:22;;;;;;;10.18;3.83;;;;;;;;;;4936758;29;20024;-76
2022/08/17 01:04:49;;;;;;;8.32;3.72;;;;;;;;;;4919624;29;20038;-76
2022/08/17 01:07:16;;;;;;;7.28;3.78;;;;;;;;;;4919621;29;20480;-75
2022/08/17 01:09:43;;;;;;;8.68;4.20;;;;;;;;;;4936719;29;20106;-76
2022/08/17 01:12:10;;;;;;;7.40;3.90;;;;;;;;;;4919484;29;20035;-75
2022/08/17 01:14:38;;;;;;;7.13;4.20;;;;;;;;;;4919448;29;20027;-75
2022/08/17 01:17:06;;;;;;;7.45;4.25;;;;;;;;;;4936771;29;20079;-75
2022/08/17 01:19:34;;;;;;;8.82;4.00;;;;;;;;;;4936491;29;20469;-75
2022/08/17 01:22:15;;;;;;;5.80;3.83;;;;;;;;;;4919465;29;20039;-75
2022/08/17 01:24:46;;;;;;;6.53;3.75;;;;;;;;;;4936444;29;20031;-76
2022/08/17 01:27:13;;;;;;;6.53;4.32;;;;;;;;;;4918896;29;20555;-76
2022/08/17 01:29:43;;;;;;;8.95;3.97;;;;;;;;;;4919294;29;20463;-76
2022/08/17 01:32:09;;;;;;;5.90;4.05;;;;;;;;;;4919337;29;20050;-77
2022/08/17 01:34:35;;;;;;;5.82;3.78;;;;;;;;;;4919123;29;20071;-75
2022/08/17 01:37:01;;;;;;;6.97;4.03;;;;;;;;;;4919234;29;20032;-75
2022/08/17 01:39:27;;;;;;;7.60;4.25;;;;;;;;;;4918996;29;20027;-76
2022/08/17 01:41:58;;;;;;;8.07;4.47;;;;;;;;;;4935936;29;20028;-77
2022/08/17 01:44:25;;;;;;;7.10;4.47;;;;;;;;;;4919108;29;20028;-74
2022/08/17 01:46:51;;;;;;;7.25;4.50;;;;;;;;;;4919114;29;20441;-75
2022/08/17 01:49:18;;;;;;;8.15;3.97;;;;;;;;;;4918351;29;20551;-75
2022/08/17 01:51:44;;;;;;;7.50;4.40;;;;;;;;;;4919123;29;20102;-75
2022/08/17 01:54:12;;;;;;;8.85;4.22;;;;;;;;;;4935927;29;20028;-74
2022/08/17 01:56:40;;;;;;;6.90;3.92;;;;;;;;;;4918875;29;20110;-75
2022/08/17 01:59:06;;;;;;;8.93;4.80;;;;;;;;;;4918974;29;20032;-74
2022/08/17 02:01:33;;;;;;;9.15;4.68;;;;;;;;;;4918691;29;20036;-75
2022/08/17 02:04:00;;;;;;;7.22;4.10;;;;;;;;;;4918933;29;20024;-74
2022/08/17 02:06:27;;;;;;;10.65;4.47;;;;;;;;;;4918948;29;20441;-74
2022/08/17 02:08:53;;;;;;;5.05;3.75;;;;;;;;;;4936005;29;20031;-75
2022/08/17 02:11:21;;;;;;;8.50;4.60;;;;;;;;;;4936045;29;20395;-74
2022/08/17 02:13:48;;;;;;;7.03;4.45;;;;;;;;;;4918871;29;20027;-74
2022/08/17 02:16:14;;;;;;;6.18;4.05;;;;;;;;;;4918881;29;20135;-74
2022/08/17 02:18:40;;;;;;;7.80;4.70;;;;;;;;;;4918978;29;20059;-75
2022/08/17 02:21:07;;;;;;;5.85;3.80;;;;;;;;;;4935939;29;20473;-75
2022/08/17 02:23:39;;;;;;;6.85;3.90;;;;;;;;;;4935790;29;20473;-74
2022/08/17 02:26:05;;;;;;;5.78;3.97;;;;;;;;;;4918750;29;20028;-76
2022/08/17 02:28:32;;;;;;;7.97;4.05;;;;;;;;;;4918683;29;20110;-75
2022/08/17 02:31:02;;;;;;;6.18;4.00;;;;;;;;;;4935604;29;20106;-75
2022/08/17 02:33:30;;;;;;;6.15;4.05;;;;;;;;;;4919256;29;20039;-74
2022/08/17 02:35:56;;;;;;;7.13;4.28;;;;;;;;;;4918591;29;20182;-75
2022/08/17 02:38:23;;;;;;;8.38;4.20;;;;;;;;;;4919160;29;20028;-74
2022/08/17 02:40:49;;;;;;;8.93;4.05;;;;;;;;;;4935689;29;20049;-74
2022/08/17 02:43:16;;;;;;;6.78;4.25;;;;;;;;;;4918961;29;20032;-75
2022/08/17 02:45:43;;;;;;;10.90;4.03;;;;;;;;;;4918631;29;20541;-75
2022/08/17 02:48:09;;;;;;;7.13;3.97;;;;;;;;;;4935802;29;20079;-76
2022/08/17 02:50:35;;;;;;;6.90;4.50;;;;;;;;;;4918541;29;20035;-74
2022/08/17 02:53:02;;;;;;;5.65;3.55;;;;;;;;;;4918566;29;20118;-74
2022/08/17 02:55:30;;;;;;;10.60;4.15;;;;;;;;;;4936033;29;20047;-75
2022/08/17 02:57:56;;;;;;;7.13;4.35;;;;;;;;;;4935407;29;20048;-75
2022/08/17 03:00:24;;;;;;;7.68;4.20;;;;;;;;;;4936093;29;20068;-75
2022/08/17 03:02:50;;;;;;;7.50;4.40;;;;;;;;;;4921894;29;20031;-76
2022/08/17 03:05:18;;;;;;;6.03;4.28;;;;;;;;;;4921912;29;20068;-75
2022/08/17 03:07:44;;;;;;;10.45;4.45;;;;;;;;;;4922166;29;20024;-75
2022/08/17 03:10:11;;;;;;;6.18;4.45;;;;;;;;;;4921780;29;20091;-74
2022/08/17 03:12:37;;;;;;;9.75;4.55;;;;;;;;;;4921831;29;20114;-74
2022/08/17 03:15:06;;;;;;;10.77;4.75;;;;;;;;;;4922217;29;20477;-75
2022/08/17 03:17:32;;;;;;;11.48;5.07;;;;;;;;;;4921939;29;20062;-74
2022/08/17 03:19:59;;;;;;;7.95;4.70;;;;;;;;;;4921725;29;20032;-76
2022/08/17 03:22:26;;;;;;;9.27;4.43;;;;;;;;;;4921751;29;20048;-76
2022/08/17 03:24:53;;;;;;;6.97;4.63;;;;;;;;;;4938858;29;20024;-76
2022/08/17 03:27:19;;;;;;;8.60;4.43;;;;;;;;;;4921365;29;20038;-76
2022/08/17 03:29:45;;;;;;;8.07;4.57;;;;;;;;;;4921386;29;20116;-77
2022/08/17 03:32:12;;;;;;;7.85;5.28;;;;;;;;;;4921299;29;20151;-76
2022/08/17 03:34:38;;;;;;;12.77;4.90;;;;;;;;;;4920719;29;20031;-76
2022/08/17 03:37:04;;;;;;;9.55;5.18;;;;;;;;;;4921077;29;20130;-76
2022/08/17 03:39:31;;;;;;;9.50;4.50;;;;;;;;;;4921144;29;20079;-76
2022/08/17 03:42:07;;;;;;;11.57;4.70;;;;;;;;;;4938396;29;20055;-76
2022/08/17 03:44:34;;;;;;;8.57;4.95;;;;;;;;;;4921215;29;20034;-74
2022/08/17 03:57:59;;;;;;;8.55;4.68;;;;;;;;;;4938074;29;20412;-76
2022/08/17 04:00:26;;;;;;;16.85;4.90;;;;;;;;;;4937921;29;20098;-76
2022/08/17 04:02:53;;;;;;;11.38;4.40;;;;;;;;;;4938571;29;20024;-76
2022/08/17 04:05:19;;;;;;;9.25;4.55;;;;;;;;;;4938024;29;20032;-76
2022/08/17 04:07:45;;;;;;;15.90;4.50;;;;;;;;;;4937950;29;20024;-77
2022/08/17 04:10:12;;;;;;;10.48;5.60;;;;;;;;;;4920742;29;20031;-75
2022/08/17 04:12:47;;;;;;;10.75;5.28;;;;;;;;;;4919937;29;20051;-76
2022/08/17 04:15:14;;;;;;;10.02;5.20;;;;;;;;;;4938178;29;20040;-76
2022/08/17 04:17:40;;;;;;;7.60;4.90;;;;;;;;;;4920507;29;20481;-76
2022/08/17 04:20:06;;;;;;;8.75;4.88;;;;;;;;;;4920472;29;20489;-76
2022/08/17 04:22:32;;;;;;;8.38;4.80;;;;;;;;;;4938098;29;20393;-76
2022/08/17 04:24:59;;;;;;;9.10;4.80;;;;;;;;;;4937590;29;20024;-76
2022/08/17 04:27:25;;;;;;;6.38;4.20;;;;;;;;;;4920538;29;20126;-76
2022/08/17 04:29:52;;;;;;;13.80;4.68;;;;;;;;;;4920646;29;20091;-76
2022/08/17 04:32:18;;;;;;;6.90;4.55;;;;;;;;;;4937432;29;20023;-76
2022/08/17 04:34:44;;;;;;;14.40;5.10;;;;;;;;;;4920242;29;20035;-76
2022/08/17 04:37:10;;;;;;;11.13;4.68;;;;;;;;;;4937837;29;20036;-76
2022/08/17 04:42:05;;;;;;;14.23;5.07;;;;;;;;;;4920549;29;20082;-76
2022/08/17 04:42:25;;;;;;;6.35;4.28;;;;;;;;;;4937203;29;20516;-77
2022/08/17 04:44:51;;;;;;;10.05;4.53;;;;;;;;;;4919736;29;20119;-76
2022/08/17 04:47:17;;;;;;;9.25;4.72;;;;;;;;;;4919657;29;20058;-75
2022/08/17 04:49:43;;;;;;;10.20;4.88;;;;;;;;;;4920032;29;20082;-85
2022/08/17 04:52:10;;;;;;;10.23;4.60;;;;;;;;;;4938037;29;20399;-82
2022/08/17 04:54:36;;;;;;;8.43;4.68;;;;;;;;;;4937309;29;20036;-80
2022/08/17 04:57:02;;;;;;;13.75;4.78;;;;;;;;;;4919825;29;20179;-73
2022/08/17 04:59:28;;;;;;;11.45;5.15;;;;;;;;;;4920159;29;20477;-83
2022/08/17 05:01:54;;;;;;;8.60;4.60;;;;;;;;;;4920913;29;20023;-85
2022/08/17 05:04:25;;;;;;;17.20;4.53;;;;;;;;;;4920844;29;20035;-85
2022/08/17 05:06:51;;;;;;;12.60;4.90;;;;;;;;;;4919836;29;20031;-71
2022/08/17 05:09:17;;;;;;;8.70;4.82;;;;;;;;;;4917291;29;20495;-79
2022/08/17 05:11:44;;;;;;;14.55;4.55;;;;;;;;;;4938058;29;20045;-74
2022/08/17 05:14:10;;;;;;;10.45;4.35;;;;;;;;;;4935791;29;20024;-78
2022/08/17 05:16:36;;;;;;;7.18;4.40;;;;;;;;;;4935402;29;20061;-78
2022/08/17 05:19:14;;;;;;;13.38;4.50;;;;;;;;;;4937585;29;20119;-79
2022/08/17 05:24:56;;;;;;;5.97;4.05;;;;;;;;;;4890004;29;20051;-86
2022/08/17 05:27:22;;;;;;;4.88;3.38;;;;;;;;;;4902425;29;20024;-87
2022/08/17 05:29:48;;;;;;;5.68;3.83;;;;;;;;;;4909608;29;20036;-86
2022/08/17 05:32:14;;;;;;;9.10;3.70;;;;;;;;;;4911319;29;20046;-86
2022/08/17 05:34:41;;;;;;;6.68;3.55;;;;;;;;;;4908582;29;20043;-87
2022/08/17 05:37:10;;;;;;;6.10;3.10;;;;;;;;;;4902596;29;20103;-87
2022/08/17 05:39:36;;;;;;;5.13;3.50;;;;;;;;;;4902769;29;20042;-87
2022/08/17 05:42:06;;;;;;;5.50;3.08;;;;;;;;;;4902647;29;20036;-88
2022/08/17 05:44:32;;;;;;;6.03;2.80;;;;;;;;;;4901908;29;20544;-88
2022/08/17 05:46:59;;;;;;;13.35;2.65;;;;;;;;;;4910221;29;20381;-88
2022/08/17 05:49:27;;;;;;;7.13;2.83;;;;;;;;;;4902675;29;20119;-87
2022/08/17 05:52:11;;;;;;;5.90;2.25;;;;;;;;;;4902251;29;20028;-86
2022/08/17 05:54:54;;;;;;;4.97;2.38;;;;;;;;;;4901597;29;20249;-88
2022/08/17 05:57:29;;;;;;;5.07;2.03;;;;;;;;;;4902734;29;20059;-88
2022/08/17 05:59:59;;;;;;;8.73;2.58;;;;;;;;;;4902824;29;20028;-89
2022/08/17 06:02:31;;;;;;;4.47;2.20;;;;;;;;;;4902432;29;20039;-88
2022/08/17 06:05:17;;;;;;;4.43;2.40;;;;;;;;;;4920758;29;20111;-88
2022/08/17 06:07:55;;;;;;;6.68;2.35;;;;;;;;;;4893914;29;20040;-88
2022/08/17 06:10:28;;;;;;;9.60;2.28;;;;;;;;;;4913580;29;20034;-88
2022/08/17 06:13:03;;;;;;;4.50;2.22;;;;;;;;;;4919383;29;20048;-88
2022/08/17 06:16:02;;;;;;;3.42;1.95;;;;;;;;;;4920774;29;20044;-87
2022/08/17 06:18:35;;;;;;;5.78;2.00;;;;;;;;;;4890195;29;20042;-86
2022/08/17 06:21:06;;;;;;;3.35;2.00;;;;;;;;;;4937747;29;20055;-87
2022/08/17 06:23:34;;;;;;;4.00;2.15;;;;;;;;;;4937289;29;20035;-88
2022/08/17 06:26:03;;;;;;;6.70;2.15;;;;;;;;;;4937546;29;20492;-86
2022/08/17 06:28:41;;;;;;;5.45;2.30;;;;;;;;;;4942549;29;20031;-88
2022/08/17 06:31:28;;;;;;;5.50;2.20;;;;;;;;;;4938019;29;20473;-87
2022/08/17 06:33:58;;;;;;;6.93;2.58;;;;;;;;;;4937703;29;20039;-88
2022/08/17 06:36:43;;;;;;;4.95;2.38;;;;;;;;;;4939876;29;20040;-89
2022/08/17 06:39:21;;;;;;;4.78;2.10;;;;;;;;;;4942047;29;20111;-88
2022/08/17 06:41:59;;;;;;;12.00;2.60;;;;;;;;;;4940829;29;20027;-88
2022/08/17 06:44:29;;;;;;;7.70;2.47;;;;;;;;;;4940361;29;20032;-87
2022/08/17 06:47:03;;;;;;;3.85;2.00;;;;;;;;;;4940184;29;20112;-87
2022/08/17 06:49:43;;;;;;;11.68;2.53;;;;;;;;;;4941387;29;20491;-87
2022/08/17 06:52:33;;;;;;;4.55;2.22;;;;;;;;;;4939369;29;20035;-88
2022/08/17 06:55:04;;;;;;;4.10;2.38;;;;;;;;;;4940808;29;20063;-88
2022/08/17 06:57:36;;;;;;;4.40;2.30;;;;;;;;;;4940090;29;20056;-89
2022/08/17 07:00:02;;;;;;;6.35;2.58;;;;;;;;;;4940793;29;20035;-91
2022/08/17 07:02:35;;;;;;;4.25;2.40;;;;;;;;;;4949104;29;20028;-90
2022/08/17 07:11:16;;;;;;;3.20;2.00;;;;;;;;;;4927542;29;20028;-90
2022/08/17 07:13:48;;;;;;;5.07;2.53;;;;;;;;;;4940837;29;20027;-91
2022/08/17 07:16:26;;;;;;;3.53;2.22;;;;;;;;;;4926974;29;20043;-91
2022/08/17 07:18:53;;;;;;;5.60;2.00;;;;;;;;;;4924196;29;20027;-90
2022/08/17 07:21:23;;;;;;;5.80;2.20;;;;;;;;;;4905581;29;20473;-91
2022/08/17 07:24:02;;;;;;;3.67;2.15;;;;;;;;;;4906060;29;20119;-92
2022/08/17 07:26:28;;;;;;;3.90;1.98;;;;;;;;;;4905338;29;20039;-92
2022/08/17 07:28:55;;;;;;;4.82;2.40;;;;;;;;;;4909694;29;20123;-89
2022/08/17 07:31:21;;;;;;;4.75;2.53;;;;;;;;;;4923663;29;20103;-90
2022/08/17 07:34:02;;;;;;;3.28;1.90;;;;;;;;;;4923376;29;20024;-91
2022/08/17 07:36:32;;;;;;;3.00;1.92;;;;;;;;;;4955366;29;20043;-90
2022/08/17 07:38:58;;;;;;;3.17;1.85;;;;;;;;;;4924668;29;20058;-91
2022/08/17 07:41:25;;;;;;;4.47;2.00;;;;;;;;;;4958686;29;20036;-90
2022/08/17 07:43:52;;;;;;;3.13;2.00;;;;;;;;;;4930533;29;20055;-91
2022/08/17 07:49:08;;;;;;;3.45;2.17;;;;;;;;;;4940542;29;20071;-90
2022/08/17 07:51:38;;;;;;;6.13;2.28;;;;;;;;;;4925240;29;20480;-91
2022/08/17 07:54:24;;;;;;;7.30;2.47;;;;;;;;;;4924380;29;20023;-92
2022/08/17 07:56:51;;;;;;;4.35;2.58;;;;;;;;;;4951802;29;20048;-91
2022/08/17 07:59:20;;;;;;;3.78;2.45;;;;;;;;;;4925421;29;20046;-91
2022/08/17 08:02:02;;;;;;;3.70;2.45;;;;;;;;;;4915978;29;20023;-92
2022/08/17 08:04:37;;;;;;;4.03;2.58;;;;;;;;;;4905154;29;20028;-92
2022/08/17 08:07:23;;;;;;;4.80;2.20;;;;;;;;;;4905557;29;20028;-92
2022/08/17 08:09:58;;;;;;;4.55;2.60;;;;;;;;;;4905549;29;20059;-94
2022/08/17 08:12:28;;;;;;;5.07;2.67;;;;;;;;;;4906359;29;20076;-92
2022/08/17 08:15:02;;;;;;;7.05;2.45;;;;;;;;;;4905380;29;20168;-92
2022/08/17 08:17:34;;;;;;;5.22;2.30;;;;;;;;;;4912821;29;20036;-91
2022/08/17 08:20:01;;;;;;;5.20;2.35;;;;;;;;;;4905780;29;20034;-90
2022/08/17 08:22:36;;;;;;;5.53;2.35;;;;;;;;;;4939922;29;20032;-92
2022/08/17 08:25:22;;;;;;;3.72;2.40;;;;;;;;;;4942233;29;20465;-91
2022/08/17 08:28:18;;;;;;;2.72;2.00;;;;;;;;;;4919923;29;20159;-90
2022/08/17 08:30:47;;;;;;;7.13;2.65;;;;;;;;;;4914999;29;20067;-91
2022/08/17 08:33:39;;;;;;;4.43;2.03;;;;;;;;;;4923193;29;20031;-90
2022/08/17 08:36:06;;;;;;;4.40;2.80;;;;;;;;;;4920042;29;20047;-91
2022/08/17 08:38:48;;;;;;;4.68;2.47;;;;;;;;;;4914897;29;20046;-90
2022/08/17 08:41:33;;;;;;;9.23;2.17;;;;;;;;;;4904129;29;20469;-88
2022/08/17 08:44:11;;;;;;;3.83;2.25;;;;;;;;;;4908258;29;20043;-88
2022/08/17 08:46:38;;;;;;;3.30;2.05;;;;;;;;;;4908000;29;20047;-88
2022/08/17 08:49:23;;;;;;;3.72;2.40;;;;;;;;;;4905503;29;20048;-91
2022/08/17 08:54:27;;;;;;;4.07;2.22;;;;;;;;;;4942628;23;20905;-87
2022/08/17 08:57:12;;;;;;;4.60;1.92;;;;;;;;;;4901688;29;20066;-87
2022/08/17 08:59:55;;;;;;;3.63;2.10;;;;;;;;;;4903103;29;20024;-90
2022/08/17 09:02:27;;;;;;;3.25;2.30;;;;;;;;;;4920920;29;20055;-89
2022/08/17 09:05:13;;;;;;;3.03;2.03;;;;;;;;;;4903614;29;20064;-89
2022/08/17 09:07:47;;;;;;;5.18;2.20;;;;;;;;;;4903951;29;20124;-90
2022/08/17 09:10:28;;;;;;;3.53;2.10;;;;;;;;;;4906986;29;20024;-91
2022/08/17 09:13:10;;;;;;;3.15;2.03;;;;;;;;;;4938610;29;20032;-89
2022/08/17 09:15:42;;;;;;;2.47;1.95;;;;;;;;;;4938852;29;20039;-89
2022/08/17 09:18:11;;;;;;;5.88;2.30;;;;;;;;;;4938270;29;20059;-89
2022/08/17 09:20:58;;;;;;;3.38;1.80;;;;;;;;;;4909966;29;20063;-89
2022/08/17 09:23:31;;;;;;;5.57;2.33;;;;;;;;;;4938659;29;20024;-89
2022/08/17 09:26:19;;;;;;;5.28;2.20;;;;;;;;;;4937870;29;20036;-89
2022/08/17 09:28:49;;;;;;;4.40;2.35;;;;;;;;;;4922206;29;20024;-89
2022/08/17 09:31:18;;;;;;;3.53;1.87;;;;;;;;;;4938813;29;20055;-89
2022/08/17 09:34:05;;;;;;;3.60;2.13;;;;;;;;;;4938363;29;20036;-90
2022/08/17 09:36:34;;;;;;;4.88;2.22;;;;;;;;;;4914456;29;20044;-90
2022/08/17 09:39:03;;;;;;;7.25;1.98;;;;;;;;;;4908938;29;20382;-88
2022/08/17 09:41:35;;;;;;;2.72;1.90;;;;;;;;;;4935364;29;20525;-89
2022/08/17 09:44:06;;;;;;;2.55;1.75;;;;;;;;;;4934897;29;20037;-90
2022/08/17 09:46:35;;;;;;;4.15;2.00;;;;;;;;;;4901062;29;20037;-90
2022/08/17 09:49:05;;;;;;;6.47;2.20;;;;;;;;;;4885636;29;20025;-91
2022/08/17 09:51:39;;;;;;;2.80;1.80;;;;;;;;;;4885299;29;20049;-91
2022/08/17 09:54:13;;;;;;;5.25;2.08;;;;;;;;;;4884932;29;20056;-90
2022/08/17 09:56:48;;;;;;;2.65;1.73;;;;;;;;;;4891146;29;20039;-90
2022/08/17 09:59:31;;;;;;;3.67;2.10;;;;;;;;;;4901981;29;20031;-89
2022/08/17 10:02:08;;;;;;;2.72;1.92;;;;;;;;;;4894948;29;20144;-89
2022/08/17 10:04:54;;;;;;;3.28;2.20;;;;;;;;;;4901559;29;20029;-90
2022/08/17 10:07:29;;;;;;;8.52;2.08;;;;;;;;;;4890651;29;20430;-90
2022/08/17 10:10:02;;;;;;;7.45;2.92;;;;;;;;;;4884282;29;20039;-91
2022/08/17 10:12:51;;;;;;;3.60;2.20;;;;;;;;;;4887538;29;20028;-90
2022/08/17 10:15:21;;;;;;;6.88;2.38;;;;;;;;;;4887987;29;20028;-91
2022/08/17 10:17:57;;;;;;;3.65;2.13;;;;;;;;;;4888949;29;20470;-90
2022/08/17 10:20:29;;;;;;;4.63;2.50;;;;;;;;;;4887825;29;20033;-90
2022/08/17 10:28:47;;;;;;;3.10;2.20;;;;;;;;;;4940874;29;20047;-91
2022/08/17 10:31:23;;;;;;;5.90;2.45;;;;;;;;;;4937927;29;20131;-90
2022/08/17 10:34:18;;;;;;;5.22;2.17;;;;;;;;;;4940633;29;20028;-91
2022/08/17 10:37:03;;;;;;;4.05;1.88;;;;;;;;;;4883624;29;20552;-90
2022/08/17 10:39:43;;;;;;;3.85;2.30;;;;;;;;;;4919416;29;20082;-91
2022/08/17 10:42:35;;;;;;;4.90;2.20;;;;;;;;;;4942812;29;20028;-91
2022/08/17 10:45:05;;;;;;;3.25;2.10;;;;;;;;;;4924196;29;20048;-91
2022/08/17 10:47:49;;;;;;;7.53;2.20;;;;;;;;;;4941006;29;20028;-91
2022/08/17 10:50:34;;;;;;;5.53;2.03;;;;;;;;;;4938552;29;20032;-94
2022/08/17 10:53:00;;;;;;;4.38;2.25;;;;;;;;;;4938307;29;20138;-93
2022/08/17 10:55:29;;;;;;;3.60;2.35;;;;;;;;;;4938593;29;20086;-91
2022/08/17 10:58:15;;;;;;;4.85;2.03;;;;;;;;;;4939731;29;20027;-92
2022/08/17 11:00:56;;;;;;;4.85;2.42;;;;;;;;;;4944490;29;20028;-91
2022/08/17 11:03:23;;;;;;;5.22;2.10;;;;;;;;;;4941147;29;20033;-90
2022/08/17 11:05:52;;;;;;;3.13;2.17;;;;;;;;;;4937784;29;20052;-91
2022/08/17 11:08:28;;;;;;;3.90;2.13;;;;;;;;;;4939517;29;20131;-92
2022/08/17 11:10:54;;;;;;;3.22;2.08;;;;;;;;;;4941934;29;20039;-94
2022/08/17 11:13:39;;;;;;;3.92;2.33;;;;;;;;;;4940618;29;20031;-92
2022/08/17 11:16:12;;;;;;;3.20;2.33;;;;;;;;;;4941162;29;20032;-93
2022/08/17 11:18:45;;;;;;;6.97;2.58;;;;;;;;;;4940542;29;20540;-93
2022/08/17 11:21:11;;;;;;;3.97;2.63;;;;;;;;;;4939906;29;20031;-91
2022/08/17 11:23:37;;;;;;;4.07;2.30;;;;;;;;;;4938759;29;20020;-92
2022/08/17 11:26:17;;;;;;;4.25;2.38;;;;;;;;;;4937026;29;20044;-91
2022/08/17 11:28:51;;;;;;;2.88;2.22;;;;;;;;;;4934639;29;20047;-89
2022/08/17 11:31:43;;;;;;;3.15;2.15;;;;;;;;;;4937319;29;20024;-89
2022/08/17 11:34:20;;;;;;;3.90;2.00;;;;;;;;;;4914099;29;20055;-89
2022/08/17 11:36:52;;;;;;;3.40;2.42;;;;;;;;;;4952514;29;20028;-90
2022/08/17 11:39:18;;;;;;;3.47;2.22;;;;;;;;;;4931845;29;20028;-90
2022/08/17 11:41:48;;;;;;;10.02;2.53;;;;;;;;;;4956308;23;20197;-90
2022/08/17 11:44:24;;;;;;;4.35;2.50;;;;;;;;;;4920404;29;20038;-90
2022/08/17 11:52:45;;;;;;;7.53;2.75;;;;;;;;;;4938245;29;20047;-90
2022/08/17 11:55:14;;;;;;;10.25;3.17;;;;;;;;;;4905195;29;20509;-90
2022/08/17 11:57:40;;;;;;;7.00;2.70;;;;;;;;;;4905476;29;20043;-91
2022/08/17 12:00:10;;;;;;;4.65;2.90;;;;;;;;;;4904662;29;20454;-91
2022/08/17 12:02:44;;;;;;;4.72;2.95;;;;;;;;;;4916396;29;20484;-90
2022/08/17 12:05:16;;;;;;;4.72;3.10;;;;;;;;;;4939996;29;20114;-89
2022/08/17 12:07:44;;;;;;;6.72;2.70;;;;;;;;;;4939943;29;20035;-91
2022/08/17 12:10:11;;;;;;;7.05;2.70;;;;;;;;;;4939930;29;20469;-90
2022/08/17 12:12:42;;;;;;;3.75;2.13;;;;;;;;;;4939642;29;20028;-89
2022/08/17 12:15:16;;;;;;;6.07;3.00;;;;;;;;;;4907390;29;20039;-90
2022/08/17 12:17:50;;;;;;;3.78;2.30;;;;;;;;;;4886105;29;20036;-92
2022/08/17 12:20:27;;;;;;;5.82;2.63;;;;;;;;;;4893504;29;20101;-90
2022/08/17 12:23:09;;;;;;;4.50;2.80;;;;;;;;;;4897750;29;20032;-91
2022/08/17 12:25:58;;;;;;;5.77;2.90;;;;;;;;;;4887023;29;20123;-90
2022/08/17 12:28:28;;;;;;;4.45;2.80;;;;;;;;;;4876876;29;20135;-91
2022/08/17 12:30:57;;;;;;;5.28;3.25;;;;;;;;;;4886718;29;20029;-90
2022/08/17 12:33:27;;;;;;;6.18;2.90;;;;;;;;;;4888105;29;20029;-90
2022/08/17 12:36:04;;;;;;;5.35;2.85;;;;;;;;;;4888212;29;20040;-91
2022/08/17 12:38:34;;;;;;;6.75;2.67;;;;;;;;;;4885317;29;20115;-92
2022/08/17 12:44:00;;;;;;;4.13;2.60;;;;;;;;;;4920952;29;20059;-90
2022/08/17 12:46:32;;;;;;;4.30;2.40;;;;;;;;;;4886718;29;20032;-91
2022/08/17 12:49:14;;;;;;;4.70;2.72;;;;;;;;;;4884445;29;20501;-91
2022/08/17 12:51:47;;;;;;;4.22;2.63;;;;;;;;;;4891398;29;20508;-91
2022/08/17 12:54:23;;;;;;;4.07;2.40;;;;;;;;;;4903140;29;20027;-91
2022/08/17 12:56:49;;;;;;;4.55;2.88;;;;;;;;;;4903692;29;20024;-92
2022/08/17 12:59:17;;;;;;;8.00;2.58;;;;;;;;;;4903465;29;20032;-91
2022/08/17 13:01:44;;;;;;;8.55;2.50;;;;;;;;;;4903424;29;20035;-91
2022/08/17 13:04:15;;;;;;;4.30;2.15;;;;;;;;;;4903069;29;20119;-91
2022/08/17 13:06:46;;;;;;;6.00;3.05;;;;;;;;;;4901123;29;20179;-91
2022/08/17 13:09:14;;;;;;;3.83;2.35;;;;;;;;;;4903282;29;20565;-91
2022/08/17 13:11:52;;;;;;;4.13;2.22;;;;;;;;;;4903329;29;20036;-90
2022/08/17 13:14:18;;;;;;;4.70;2.33;;;;;;;;;;4903386;29;20393;-90
2022/08/17 13:16:52;;;;;;;4.65;2.20;;;;;;;;;;4903525;29;20027;-91
2022/08/17 13:19:20;;;;;;;3.60;2.30;;;;;;;;;;4903443;29;20040;-91
2022/08/17 13:21:54;;;;;;;7.78;2.20;;;;;;;;;;4903438;29;20028;-91
2022/08/17 13:24:23;;;;;;;2.85;1.80;;;;;;;;;;4903767;29;20459;-90
2022/08/17 13:26:53;;;;;;;6.22;2.33;;;;;;;;;;4903352;29;20464;-89
2022/08/17 13:29:34;;;;;;;4.78;2.17;;;;;;;;;;4904019;29;20038;-91
2022/08/17 13:32:06;;;;;;;6.18;2.83;;;;;;;;;;4911275;29;20056;-91
2022/08/17 13:34:44;;;;;;;3.67;2.50;;;;;;;;;;4922522;29;20100;-91
2022/08/17 13:37:31;;;;;;;3.85;2.55;;;;;;;;;;4903113;29;20092;-91
2022/08/17 13:40:06;;;;;;;4.60;2.63;;;;;;;;;;4903885;29;20035;-91
2022/08/17 13:42:41;;;;;;;5.63;2.65;;;;;;;;;;4915142;29;20501;-91
2022/08/17 13:45:26;;;;;;;4.30;2.63;;;;;;;;;;4921782;29;20044;-91
2022/08/17 13:48:13;;;;;;;6.55;2.58;;;;;;;;;;4922380;29;20064;-92
2022/08/17 13:50:54;;;;;;;6.72;2.85;;;;;;;;;;4922767;29;20028;-91
2022/08/17 13:53:35;;;;;;;4.40;2.97;;;;;;;;;;4923050;29;20110;-90
2022/08/17 13:56:13;;;;;;;7.18;3.17;;;;;;;;;;4922856;29;20123;-90
2022/08/17 13:58:56;;;;;;;12.32;2.60;;;;;;;;;;4922748;29;20457;-90
2022/08/17 14:01:45;;;;;;;5.70;2.35;;;;;;;;;;4922707;29;20068;-91
2022/08/17 14:04:13;;;;;;;2.97;2.15;;;;;;;;;;4923957;29;20091;-90
2022/08/17 14:06:51;;;;;;;6.22;2.50;;;;;;;;;;4931142;29;20055;-90
2022/08/17 14:09:17;;;;;;;5.45;2.47;;;;;;;;;;4932198;29;20035;-90
2022/08/17 14:11:44;;;;;;;4.80;2.17;;;;;;;;;;4922497;29;20096;-90
2022/08/17 14:14:11;;;;;;;3.10;2.20;;;;;;;;;;4922013;29;20048;-91
2022/08/17 14:16:40;;;;;;;3.08;2.08;;;;;;;;;;4921209;29;20032;-91
2022/08/17 14:19:11;;;;;;;4.18;2.85;;;;;;;;;;4922769;29;20028;-91
2022/08/17 14:21:38;;;;;;;6.93;2.60;;;;;;;;;;4922781;29;20465;-90
2022/08/17 14:24:05;;;;;;;7.65;2.50;;;;;;;;;;4923133;29;20034;-90
2022/08/17 14:26:32;;;;;;;3.90;2.20;;;;;;;;;;4922813;29;20118;-90
2022/08/17 14:28:58;;;;;;;7.82;2.65;;;;;;;;;;4923327;29;20055;-91
2022/08/17 14:31:26;;;;;;;3.58;2.00;;;;;;;;;;4922523;29;20023;-92
2022/08/17 14:33:52;;;;;;;3.40;2.08;;;;;;;;;;4922481;29;20524;-93
2022/08/17 14:36:18;;;;;;;4.07;2.45;;;;;;;;;;4922699;29;20465;-92
2022/08/17 14:38:44;;;;;;;3.47;2.40;;;;;;;;;;4923298;29;20464;-92
2022/08/17 14:41:11;;;;;;;4.65;2.45;;;;;;;;;;4922810;29;20044;-92
2022/08/17 14:43:38;;;;;;;4.63;2.28;;;;;;;;;;4896380;29;20072;-92
2022/08/17 14:46:04;;;;;;;3.78;2.53;;;;;;;;;;4906705;29;20040;-93
2022/08/17 14:48:37;;;;;;;3.67;1.98;;;;;;;;;;4918397;29;20140;-93
2022/08/17 14:51:03;;;;;;;;;;;;;;;;;;4908004;29;20046;-93
2022/08/17 14:53:29;;;;;;;4.57;2.25;;;;;;;;;;4921868;29;19907;-92
2022/08/17 14:55:55;;;;;;;6.75;1.92;;;;;;;;;;4905508;29;20028;-92
2022/08/17 15:04:13;;;;;;;2.58;1.80;;;;;;;;;;4941309;29;20443;-92
2022/08/17 15:06:39;;;;;;;5.63;2.08;;;;;;;;;;4940187;29;20043;-92
2022/08/17 15:09:05;;;;;;;3.65;1.75;;;;;;;;;;4940558;29;20562;-91
2022/08/17 15:11:32;;;;;;;3.50;2.08;;;;;;;;;;4941907;29;20036;-92
2022/08/17 15:13:58;;;;;;;6.13;1.90;;;;;;;;;;4941286;29;20024;-91
2022/08/17 15:16:25;;;;;;;3.65;2.10;;;;;;;;;;4940946;29;20036;-92
2022/08/17 15:18:52;;;;;;;4.72;2.20;;;;;;;;;;4940813;29;20024;-92
2022/08/17 15:21:18;;;;;;;3.55;1.80;;;;;;;;;;4941038;29;20042;-91
2022/08/17 15:23:45;;;;;;;4.68;2.17;;;;;;;;;;4941171;29;20023;-91
2022/08/17 15:26:11;;;;;;;3.03;2.03;;;;;;;;;;4959768;28;20028;-91
2022/08/17 15:28:37;;;;;;;3.10;1.80;;;;;;;;;;4952923;28;20036;-91
2022/08/17 15:31:05;;;;;;;5.00;2.05;;;;;;;;;;4951355;29;20012;-92
2022/08/17 15:33:32;;;;;;;11.90;2.10;;;;;;;;;;4955276;28;20032;-76
2022/08/17 15:36:00;;;;;;;4.20;2.00;;;;;;;;;;4927711;29;20032;-75
2022/08/17 15:38:26;;;;;;;4.25;1.85;;;;;;;;;;4938882;29;20027;-84
2022/08/17 15:40:53;;;;;;;4.63;2.50;;;;;;;;;;4916552;29;20043;-84
2022/08/17 15:43:21;;;;;;;5.10;2.20;;;;;;;;;;4901094;29;20533;-85
2022/08/17 15:45:48;;;;;;;3.90;2.10;;;;;;;;;;4899045;29;20047;-82
2022/08/17 15:48:14;;;;;;;3.80;2.15;;;;;;;;;;4899234;29;20428;-85
2022/08/17 15:50:41;;;;;;;3.10;2.00;;;;;;;;;;4924935;29;20099;-84
2022/08/17 15:53:07;;;;;;;7.43;2.35;;;;;;;;;;4917998;29;20024;-89